createdAt,value
2023-04-07T00:01:18.045Z,101644.07
2023-04-07T00:03:45.976Z,101646.49
2023-04-07T00:06:14.391Z,101644.43
2023-04-07T00:08:42.665Z,101650.52
2023-04-07T00:11:10.682Z,101645.15
2023-04-07T00:13:38.506Z,101641.81
2023-04-07T00:16:06.657Z,101639.79
2023-04-07T00:18:34.643Z,101643.91
2023-04-07T00:21:02.533Z,101646.75
2023-04-07T00:23:30.548Z,101645.73
2023-04-07T00:25:58.571Z,101636.29
2023-04-07T00:28:26.598Z,101641.88
2023-04-07T00:30:54.487Z,101633.67
2023-04-07T00:33:22.446Z,101636.06
2023-04-07T00:35:50.320Z,101635.27
2023-04-07T00:38:18.507Z,101635.27
2023-04-07T00:40:46.384Z,101630.83
2023-04-07T00:43:14.224Z,101631.16
2023-04-07T00:45:42.420Z,101623.86
2023-04-07T00:48:11.914Z,101631.25
2023-04-07T00:50:39.861Z,101617.52
2023-04-07T00:53:08.284Z,101614.67
2023-04-07T00:55:36.417Z,101604.90
2023-04-07T00:58:06.365Z,101596.36
2023-04-07T01:00:43.690Z,101597.47
2023-04-07T01:03:19.601Z,101589.27
2023-04-07T01:06:01.122Z,101587.23
2023-04-07T01:08:39.881Z,101577.79
2023-04-07T01:11:11.268Z,101565.91
2023-04-07T01:13:45.259Z,101568.80
2023-04-07T01:16:21.009Z,101559.41
2023-04-07T01:18:53.531Z,101553.72
2023-04-07T01:21:23.649Z,101545.64
2023-04-07T01:24:09.469Z,101551.01
2023-04-07T01:26:38.194Z,101533.19
2023-04-07T01:29:27.126Z,101539.23
2023-04-07T01:31:59.638Z,101523.73
2023-04-07T01:34:28.949Z,101520.10
2023-04-07T01:36:58.701Z,101515.66
2023-04-07T01:39:28.900Z,101516.45
2023-04-07T01:41:59.145Z,101521.02
2023-04-07T01:44:28.825Z,101512.91
2023-04-07T01:46:57.875Z,101519.05
2023-04-07T01:49:28.636Z,101513.37
2023-04-07T01:51:57.056Z,101511.08
2023-04-07T01:54:25.667Z,101511.41
2023-04-07T01:56:53.664Z,101517.55
2023-04-07T01:59:21.550Z,101506.63
2023-04-07T02:01:49.793Z,101511.99
2023-04-07T02:04:27.149Z,101512.45
2023-04-07T02:07:00.772Z,101505.59
2023-04-07T02:09:32.972Z,101508.43
2023-04-07T02:12:03.467Z,101504.44
2023-04-07T02:14:31.331Z,101501.59
2023-04-07T02:17:01.768Z,101500.35
2023-04-07T02:19:31.694Z,101491.00
2023-04-07T02:22:00.528Z,101486.91
2023-04-07T02:24:28.404Z,101489.76
2023-04-07T02:26:56.276Z,101494.30
2023-04-07T02:29:24.275Z,101480.87
2023-04-07T02:31:52.452Z,101478.80
2023-04-07T02:34:20.370Z,101477.70
2023-04-07T02:36:48.285Z,101469.91
2023-04-07T02:39:16.178Z,101480.05
2023-04-07T02:41:44.189Z,101467.98
2023-04-07T02:44:12.270Z,101468.77
2023-04-07T02:46:40.067Z,101466.28
2023-04-07T02:49:08.144Z,101463.77
2023-04-07T02:51:36.057Z,101459.22
2023-04-07T02:54:03.957Z,101452.61
2023-04-07T02:56:32.725Z,101453.76
2023-04-07T02:59:00.581Z,101462.65
2023-04-07T03:01:29.333Z,101452.02
2023-04-07T03:03:57.481Z,101452.74
2023-04-07T03:06:25.535Z,101447.05
2023-04-07T03:08:53.422Z,101447.05
2023-04-07T03:11:21.335Z,101444.17
2023-04-07T03:13:49.292Z,101443.03
2023-04-07T03:16:17.245Z,101444.73
2023-04-07T03:18:45.252Z,101445.55
2023-04-07T03:21:13.202Z,101439.40
2023-04-07T03:23:41.056Z,101443.03
2023-04-07T03:26:08.912Z,101433.22
2023-04-07T03:28:36.753Z,101434.49
2023-04-07T03:31:05.127Z,101429.23
2023-04-07T03:33:33.082Z,101421.05
2023-04-07T03:36:00.999Z,101417.39
2023-04-07T03:38:28.921Z,101408.50
2023-04-07T03:40:56.895Z,101399.96
2023-04-07T03:43:24.967Z,101404.51
2023-04-07T03:45:55.358Z,101401.34
2023-04-07T03:48:23.318Z,101395.29
2023-04-07T03:50:51.328Z,101384.01
2023-04-07T03:53:20.733Z,101391.85
2023-04-07T03:55:49.860Z,101381.85
2023-04-07T03:58:18.000Z,101378.77
2023-04-07T04:00:45.911Z,101383.77
2023-04-07T04:03:13.889Z,101375.66
2023-04-07T04:05:42.214Z,101384.34
2023-04-07T04:08:10.085Z,101379.92
2023-04-07T04:10:37.969Z,101376.68
2023-04-07T04:13:07.998Z,101383.65
2023-04-07T04:15:35.911Z,101384.10
2023-04-07T04:18:04.210Z,101375.66
2023-04-07T04:20:32.108Z,101375.66
2023-04-07T04:22:59.994Z,101385.48
2023-04-07T04:25:28.032Z,101380.12
2023-04-07T04:27:55.873Z,101384.98
2023-04-07T04:30:23.992Z,101380.12
2023-04-07T04:32:52.144Z,101380.57
2023-04-07T04:35:20.227Z,101377.37
2023-04-07T04:37:48.122Z,101384.76
2023-04-07T04:40:16.452Z,101388.09
2023-04-07T04:42:44.355Z,101383.05
2023-04-07T04:45:12.490Z,101372.82
2023-04-07T04:47:40.503Z,101374.75
2023-04-07T04:50:09.183Z,101379.20
2023-04-07T04:52:37.222Z,101374.98
2023-04-07T04:55:05.359Z,101374.98
2023-04-07T04:57:33.312Z,101372.95
2023-04-07T05:00:01.272Z,101372.49
2023-04-07T05:02:29.826Z,101366.77
2023-04-07T05:04:57.946Z,101369.98
2023-04-07T05:07:26.099Z,101378.52
2023-04-07T05:09:53.959Z,101378.09
2023-04-07T05:12:23.200Z,101375.93
2023-04-07T05:14:51.213Z,101380.02
2023-04-07T05:17:19.104Z,101368.87
2023-04-07T05:19:47.024Z,101369.39
2023-04-07T05:22:14.885Z,101369.16
2023-04-07T05:24:42.951Z,101362.00
2023-04-07T05:27:10.904Z,101370.30
2023-04-07T05:29:38.810Z,101368.48
2023-04-07T05:32:07.262Z,101360.37
2023-04-07T05:34:35.232Z,101359.58
2023-04-07T05:37:03.078Z,101355.16
2023-04-07T05:39:30.966Z,101350.23
2023-04-07T05:41:59.463Z,101350.62
2023-04-07T05:44:27.647Z,101361.18
2023-04-07T05:46:55.555Z,101362.09
2023-04-07T05:49:23.494Z,101351.96
2023-04-07T05:51:51.545Z,101362.98
2023-04-07T05:54:19.445Z,101360.59
2023-04-07T05:56:47.467Z,101363.90
2023-04-07T05:59:15.433Z,101365.95
2023-04-07T06:01:44.311Z,101367.98
2023-04-07T06:04:12.414Z,101370.24
2023-04-07T06:06:40.256Z,101372.85
2023-04-07T06:09:08.365Z,101365.20
2023-04-07T06:11:36.292Z,101362.59
2023-04-07T06:14:04.176Z,101362.49
2023-04-07T06:16:32.215Z,101365.59
2023-04-07T06:19:00.061Z,101363.70
2023-04-07T06:21:28.660Z,101357.65
2023-04-07T06:23:56.604Z,101364.29
2023-04-07T06:26:25.047Z,101365.66
2023-04-07T06:28:53.821Z,101366.58
2023-04-07T06:31:22.419Z,101370.34
2023-04-07T06:33:50.571Z,101366.71
2023-04-07T06:36:18.846Z,101364.62
2023-04-07T06:38:46.920Z,101359.80
2023-04-07T06:41:18.477Z,101364.84
2023-04-07T06:43:48.713Z,101363.30
2023-04-07T06:46:16.872Z,101357.39
2023-04-07T06:48:45.040Z,101366.48
2023-04-07T06:51:13.015Z,101353.23
2023-04-07T06:53:41.518Z,101354.22
2023-04-07T06:56:14.137Z,101348.76
2023-04-07T06:58:42.046Z,101359.88
2023-04-07T07:01:10.063Z,101347.09
2023-04-07T07:03:38.180Z,101346.95
2023-04-07T07:06:06.935Z,101350.55
2023-04-07T07:08:35.246Z,101347.32
2023-04-07T07:11:03.332Z,101342.31
2023-04-07T07:13:31.242Z,101344.99
2023-04-07T07:15:59.198Z,101347.16
2023-04-07T07:18:28.486Z,101340.52
2023-04-07T07:20:57.214Z,101352.32
2023-04-07T07:23:25.164Z,101352.81
2023-04-07T07:25:53.157Z,101351.41
2023-04-07T07:28:22.972Z,101349.21
2023-04-07T07:30:51.241Z,101350.65
2023-04-07T07:33:19.258Z,101356.05
2023-04-07T07:35:47.191Z,101351.47
2023-04-07T07:38:15.172Z,101351.80
2023-04-07T07:40:43.014Z,101355.13
2023-04-07T07:43:10.859Z,101357.26
2023-04-07T07:45:38.798Z,101352.32
2023-04-07T07:48:06.779Z,101351.53
2023-04-07T07:50:34.789Z,101358.66
2023-04-07T07:53:02.827Z,101356.70
2023-04-07T07:55:30.786Z,101354.12
2023-04-07T07:57:58.881Z,101354.12
2023-04-07T08:00:26.956Z,101360.49
2023-04-07T08:02:55.036Z,101350.49
2023-04-07T08:05:23.111Z,101364.68
2023-04-07T08:07:52.767Z,101363.41
2023-04-07T08:10:22.296Z,101362.78
2023-04-07T08:12:50.229Z,101366.74
2023-04-07T08:15:18.317Z,101362.00
2023-04-07T08:17:46.341Z,101366.74
2023-04-07T08:20:14.464Z,101371.22
2023-04-07T08:22:42.694Z,101365.47
2023-04-07T08:25:10.613Z,101375.96
2023-04-07T08:27:38.447Z,101365.79
2023-04-07T08:30:08.386Z,101366.58
2023-04-07T08:32:46.417Z,101368.02
2023-04-07T08:35:14.405Z,101363.70
2023-04-07T08:37:44.990Z,101362.55
2023-04-07T08:40:14.040Z,101366.67
2023-04-07T08:42:44.468Z,101363.60
2023-04-07T08:45:13.928Z,101363.93
2023-04-07T08:47:45.386Z,101361.09
2023-04-07T08:50:13.631Z,101363.44
2023-04-07T08:52:45.851Z,101359.58
2023-04-07T08:55:14.567Z,101352.62
2023-04-07T08:57:45.981Z,101354.97
2023-04-07T09:00:15.134Z,101353.20
2023-04-07T09:02:46.666Z,101351.27
2023-04-07T09:05:18.275Z,101345.35
2023-04-07T09:07:46.268Z,101354.09
2023-04-07T09:10:14.222Z,101353.30
2023-04-07T09:12:42.490Z,101352.19
2023-04-07T09:15:10.710Z,101356.77
2023-04-07T09:17:38.705Z,101355.33
2023-04-07T09:20:08.249Z,101356.11
2023-04-07T09:22:41.554Z,101360.40
2023-04-07T09:25:15.653Z,101363.66
2023-04-07T09:28:05.434Z,101358.14
2023-04-07T09:30:34.855Z,101361.54
2023-04-07T09:33:03.649Z,101361.12
2023-04-07T09:35:31.999Z,101362.26
2023-04-07T09:38:10.422Z,101360.04
2023-04-07T09:40:41.268Z,101367.20
2023-04-07T09:43:17.063Z,101356.70
2023-04-07T09:45:45.067Z,101349.70
2023-04-07T09:48:23.191Z,101365.92
2023-04-07T09:50:52.378Z,101364.81
2023-04-07T09:53:24.510Z,101365.14
2023-04-07T09:55:53.349Z,101367.88
2023-04-07T09:58:21.889Z,101362.49
2023-04-07T10:00:50.636Z,101372.37
2023-04-07T10:03:19.228Z,101371.25
2023-04-07T10:05:48.284Z,101367.43
2023-04-07T10:08:16.653Z,101371.22
2023-04-07T10:10:45.801Z,101372.66
2023-04-07T10:13:14.470Z,101371.22
2023-04-07T10:15:42.971Z,101373.74
2023-04-07T10:18:11.260Z,101361.31
2023-04-07T10:20:45.589Z,101362.88
2023-04-07T10:23:30.229Z,101363.50
2023-04-07T10:25:59.709Z,101370.66
2023-04-07T10:28:29.970Z,101365.10
2023-04-07T10:30:59.311Z,101381.52
2023-04-07T10:33:53.190Z,101362.26
2023-04-07T10:36:22.950Z,101371.94
2023-04-07T10:39:10.747Z,101377.83
2023-04-07T10:41:42.757Z,101371.61
2023-04-07T10:44:32.588Z,101374.91
2023-04-07T10:47:06.074Z,101368.15
2023-04-07T10:49:37.267Z,101378.94
2023-04-07T10:52:14.468Z,101365.04
2023-04-07T10:54:42.905Z,101369.62
2023-04-07T10:57:14.330Z,101368.73
2023-04-07T11:00:13.291Z,101365.40
2023-04-07T11:02:41.491Z,101362.00
2023-04-07T11:05:10.111Z,101371.91
2023-04-07T11:08:08.148Z,101365.34
2023-04-07T11:10:39.780Z,101357.45
2023-04-07T11:13:11.726Z,101361.54
2023-04-07T11:15:41.015Z,101370.47
2023-04-07T11:18:21.361Z,101367.88
2023-04-07T11:20:54.752Z,101367.20
2023-04-07T11:23:25.421Z,101374.46
2023-04-07T11:25:55.939Z,101370.20
2023-04-07T11:28:24.054Z,101366.94
2023-04-07T11:30:54.140Z,101360.98
2023-04-07T11:33:24.396Z,101368.21
2023-04-07T11:35:55.213Z,101370.01
2023-04-07T11:38:25.384Z,101370.30
2023-04-07T11:40:53.398Z,101373.77
2023-04-07T11:43:27.090Z,101378.05
2023-04-07T11:46:18.725Z,101364.78
2023-04-07T11:48:48.733Z,101373.87
2023-04-07T11:51:19.686Z,101380.45
2023-04-07T11:53:48.601Z,101377.04
2023-04-07T11:56:19.111Z,101377.47
2023-04-07T11:58:54.730Z,101379.72
2023-04-07T12:01:23.635Z,101378.31
2023-04-07T12:04:04.318Z,101375.87
2023-04-07T12:06:39.824Z,101380.31
2023-04-07T12:09:07.795Z,101380.90
2023-04-07T12:11:37.417Z,101381.52
2023-04-07T12:14:06.598Z,101379.52
2023-04-07T12:16:40.132Z,101385.09
2023-04-07T12:19:08.200Z,101386.06
2023-04-07T12:21:36.098Z,101383.38
2023-04-07T12:24:04.106Z,101383.38
2023-04-07T12:26:32.007Z,101388.55
2023-04-07T12:29:06.392Z,101383.41
2023-04-07T12:31:34.643Z,101391.33
2023-04-07T12:34:02.623Z,101385.09
2023-04-07T12:36:30.978Z,101385.91
2023-04-07T12:38:58.973Z,101383.62
2023-04-07T12:41:27.302Z,101390.35
2023-04-07T12:43:55.550Z,101386.20
2023-04-07T12:46:23.956Z,101386.66
2023-04-07T12:48:52.799Z,101387.05
2023-04-07T12:51:20.995Z,101387.77
2023-04-07T12:53:49.806Z,101389.23
2023-04-07T12:56:17.996Z,101391.30
2023-04-07T12:58:46.058Z,101392.90
2023-04-07T13:01:14.011Z,101390.22
2023-04-07T13:03:42.455Z,101391.40
2023-04-07T13:06:12.056Z,101393.81
2023-04-07T13:08:40.687Z,101403.04
2023-04-07T13:11:08.741Z,101384.10
2023-04-07T13:13:36.915Z,101402.22
2023-04-07T13:16:04.893Z,101404.38
2023-04-07T13:18:32.930Z,101397.94
2023-04-07T13:23:53.876Z,101405.00
2023-04-07T13:26:19.898Z,101409.84
2023-04-07T13:28:49.281Z,101402.35
2023-04-07T13:31:17.533Z,101408.27
2023-04-07T13:33:46.858Z,101410.85
2023-04-07T13:36:15.050Z,101414.19
2023-04-07T13:38:43.853Z,101411.51
2023-04-07T13:41:11.772Z,101416.45
2023-04-07T13:43:39.837Z,101408.20
2023-04-07T13:46:17.221Z,101408.14
2023-04-07T13:48:53.157Z,101410.82
2023-04-07T13:51:21.276Z,101410.82
2023-04-07T13:53:49.183Z,101409.12
2023-04-07T13:56:17.200Z,101415.50
2023-04-07T13:58:45.280Z,101417.46
2023-04-07T14:01:13.383Z,101419.26
2023-04-07T14:03:41.444Z,101415.98
2023-04-07T14:06:09.581Z,101419.48
2023-04-07T14:08:37.494Z,101421.61
2023-04-07T14:11:05.381Z,101421.02
2023-04-07T14:13:33.587Z,101427.04
2023-04-07T14:16:01.619Z,101422.59
2023-04-07T14:18:29.740Z,101427.79
2023-04-07T14:20:57.758Z,101416.02
2023-04-07T14:23:36.633Z,101430.31
2023-04-07T14:26:05.053Z,101427.30
2023-04-07T14:28:33.105Z,101416.80
2023-04-07T14:31:01.128Z,101428.91
2023-04-07T14:33:29.065Z,101424.45
2023-04-07T14:35:56.916Z,101423.31
2023-04-07T14:38:26.998Z,101423.61
2023-04-07T14:40:55.102Z,101420.11
2023-04-07T14:43:23.017Z,101411.12
2023-04-07T14:45:50.922Z,101420.66
2023-04-07T14:48:18.920Z,101420.50
2023-04-07T14:50:47.759Z,101408.86
2023-04-07T14:53:18.567Z,101412.75
2023-04-07T14:55:46.421Z,101416.05
2023-04-07T14:58:14.294Z,101416.51
2023-04-07T15:00:42.311Z,101420.59
2023-04-07T15:03:10.800Z,101421.74
2023-04-07T15:05:38.933Z,101421.45
2023-04-07T15:08:06.911Z,101416.38
2023-04-07T15:10:36.795Z,101425.05
2023-04-07T15:13:04.927Z,101431.55
2023-04-07T15:15:33.043Z,101435.05
2023-04-07T15:18:00.960Z,101436.95
2023-04-07T15:20:28.837Z,101438.06
2023-04-07T15:22:57.144Z,101443.78
2023-04-07T15:25:25.226Z,101455.59
2023-04-07T15:27:53.203Z,101449.83
2023-04-07T15:30:21.239Z,101447.58
2023-04-07T15:33:02.177Z,101445.68
2023-04-07T15:35:30.125Z,101452.58
2023-04-07T15:37:58.088Z,101459.34
2023-04-07T15:40:26.022Z,101467.00
2023-04-07T15:42:53.985Z,101470.07
2023-04-07T15:45:22.214Z,101465.16
2023-04-07T15:47:50.214Z,101477.59
2023-04-07T15:50:18.198Z,101463.14
2023-04-07T15:52:46.610Z,101476.97
2023-04-07T15:55:14.512Z,101479.69
2023-04-07T15:57:42.512Z,101482.40
2023-04-07T16:00:10.893Z,101481.95
2023-04-07T16:02:39.530Z,101475.27
2023-04-07T16:05:07.689Z,101478.64
2023-04-07T16:07:35.614Z,101477.66
2023-04-07T16:10:04.276Z,101479.10
2023-04-07T16:12:33.846Z,101488.52
2023-04-07T16:15:02.179Z,101490.74
2023-04-07T16:17:30.157Z,101494.24
2023-04-07T16:19:58.133Z,101495.35
2023-04-07T16:22:26.606Z,101497.90
2023-04-07T16:24:54.596Z,101506.34
2023-04-07T16:27:22.490Z,101504.24
2023-04-07T16:29:50.423Z,101514.58
2023-04-07T16:32:18.275Z,101512.98
2023-04-07T16:34:46.224Z,101512.16
2023-04-07T16:37:14.233Z,101520.10
2023-04-07T16:39:42.141Z,101517.85
2023-04-07T16:42:10.010Z,101522.46
2023-04-07T16:44:37.956Z,101529.26
2023-04-07T16:47:05.904Z,101532.76
2023-04-07T16:49:33.801Z,101536.23
2023-04-07T16:52:01.798Z,101541.30
2023-04-07T16:54:29.757Z,101544.30
2023-04-07T16:56:57.607Z,101542.54
2023-04-07T16:59:25.468Z,101548.52
2023-04-07T17:01:53.339Z,101556.47
2023-04-07T17:04:21.379Z,101559.77
2023-04-07T17:06:49.321Z,101567.26
2023-04-07T17:09:18.960Z,101560.20
2023-04-07T17:11:47.014Z,101564.48
2023-04-07T17:14:14.968Z,101574.78
2023-04-07T17:16:42.864Z,101570.46
2023-04-07T17:19:10.704Z,101574.71
2023-04-07T17:21:39.030Z,101575.66
2023-04-07T17:24:07.689Z,101585.51
2023-04-07T17:26:35.604Z,101592.14
2023-04-07T17:29:03.488Z,101583.70
2023-04-07T17:31:31.403Z,101587.47
2023-04-07T17:33:59.285Z,101592.53
2023-04-07T17:36:27.105Z,101599.04
2023-04-07T17:38:55.057Z,101602.51
2023-04-07T17:41:24.080Z,101603.55
2023-04-07T17:43:52.034Z,101604.27
2023-04-07T17:46:20.080Z,101604.86
2023-04-07T17:48:48.312Z,101605.12
2023-04-07T17:51:16.813Z,101612.55
2023-04-07T17:53:44.964Z,101613.73
2023-04-07T17:56:13.919Z,101620.49
2023-04-07T17:58:43.513Z,101624.38
2023-04-07T18:01:12.340Z,101633.93
2023-04-07T18:03:40.467Z,101628.84
2023-04-07T18:06:09.880Z,101633.51
2023-04-07T18:08:38.019Z,101637.73
2023-04-07T18:11:07.193Z,101644.37
2023-04-07T18:13:35.218Z,101648.02
2023-04-07T18:16:03.143Z,101653.36
2023-04-07T18:18:31.052Z,101650.19
2023-04-07T18:20:59.168Z,101653.95
2023-04-07T18:23:27.112Z,101655.55
2023-04-07T18:25:54.966Z,101664.70
2023-04-07T18:28:22.884Z,101666.83
2023-04-07T18:30:50.766Z,101662.84
2023-04-07T18:33:18.804Z,101667.87
2023-04-07T18:35:46.741Z,101663.95
2023-04-07T18:38:14.584Z,101675.53
2023-04-07T18:40:42.525Z,101673.92
2023-04-07T18:43:10.516Z,101678.38
2023-04-07T18:45:38.350Z,101680.07
2023-04-07T18:48:07.033Z,101689.39
2023-04-07T18:50:34.958Z,101686.68
2023-04-07T18:53:03.250Z,101697.17
2023-04-07T18:55:31.292Z,101698.55
2023-04-07T18:57:59.767Z,101696.95
2023-04-07T19:00:27.940Z,101688.84
2023-04-07T19:02:56.097Z,101702.41
2023-04-07T19:05:25.797Z,101703.78
2023-04-07T19:07:53.965Z,101703.78
2023-04-07T19:10:22.123Z,101707.05
2023-04-07T19:12:50.156Z,101712.31
2023-04-07T19:15:18.209Z,101715.95
2023-04-07T19:17:46.743Z,101718.82
2023-04-07T19:20:14.764Z,101720.88
2023-04-07T19:22:43.339Z,101718.04
2023-04-07T19:25:11.819Z,101726.57
2023-04-07T19:27:41.114Z,101724.19
2023-04-07T19:30:09.521Z,101720.16
2023-04-07T19:32:37.823Z,101723.50
2023-04-07T19:35:06.056Z,101732.49
2023-04-07T19:37:34.264Z,101730.43
2023-04-07T19:40:03.559Z,101734.87
2023-04-07T19:42:31.968Z,101736.94
2023-04-07T19:45:02.638Z,101739.69
2023-04-07T19:47:30.790Z,101746.55
2023-04-07T19:49:58.921Z,101746.55
2023-04-07T19:52:27.261Z,101740.83
2023-04-07T19:54:55.308Z,101747.34
2023-04-07T19:57:23.972Z,101751.78
2023-04-07T19:59:52.284Z,101744.46
2023-04-07T20:02:20.544Z,101755.87
2023-04-07T20:04:48.668Z,101750.54
2023-04-07T20:07:16.947Z,101762.41
2023-04-07T20:09:45.222Z,101763.66
2023-04-07T20:12:13.240Z,101759.89
2023-04-07T20:14:41.227Z,101754.99
2023-04-07T20:17:09.192Z,101756.59
2023-04-07T20:19:38.169Z,101758.98
2023-04-07T20:22:06.106Z,101757.28
2023-04-07T20:24:37.039Z,101763.79
2023-04-07T20:27:05.147Z,101766.30
2023-04-07T20:29:33.187Z,101772.35
2023-04-07T20:32:01.152Z,101770.75
2023-04-07T20:34:29.151Z,101777.26
2023-04-07T20:36:57.215Z,101775.20
2023-04-07T20:39:25.139Z,101773.14
2023-04-07T20:41:52.953Z,101776.80
2023-04-07T20:44:21.384Z,101778.77
2023-04-07T20:46:49.405Z,101780.01
2023-04-07T20:49:17.477Z,101772.26
2023-04-07T20:51:46.031Z,101777.98
2023-04-07T20:54:14.186Z,101775.55
2023-04-07T20:56:44.298Z,101780.43
2023-04-07T20:59:12.378Z,101772.81
2023-04-07T21:01:40.419Z,101781.34
2023-04-07T21:04:08.476Z,101787.49
2023-04-07T21:06:36.833Z,101790.34
2023-04-07T21:09:06.986Z,101788.41
2023-04-07T21:11:34.955Z,101797.86
2023-04-07T21:14:03.173Z,101784.98
2023-04-07T21:16:31.937Z,101793.97
2023-04-07T21:18:59.899Z,101793.18
2023-04-07T21:21:27.961Z,101794.85
2023-04-07T21:23:55.938Z,101789.59
2023-04-07T21:26:24.063Z,101784.81
2023-04-07T21:28:53.540Z,101790.96
2023-04-07T21:31:23.755Z,101787.66
2023-04-07T21:33:52.764Z,101793.34
2023-04-07T21:36:20.752Z,101785.95
2023-04-07T21:38:49.893Z,101792.92
2023-04-07T21:41:18.261Z,101793.70
2023-04-07T21:43:46.224Z,101795.30
2023-04-07T21:46:15.590Z,101791.32
2023-04-07T21:48:43.816Z,101792.92
2023-04-07T21:51:12.636Z,101788.34
2023-04-07T21:53:41.805Z,101788.90
2023-04-07T21:56:10.794Z,101790.17
2023-04-07T21:58:38.763Z,101789.81
2023-04-07T22:01:07.197Z,101788.67
2023-04-07T22:03:35.246Z,101796.06
2023-04-07T22:06:03.780Z,101792.86
2023-04-07T22:08:31.828Z,101795.80
2023-04-07T22:10:59.950Z,101795.11
2023-04-07T22:13:27.830Z,101796.78
2023-04-07T22:15:57.014Z,101792.34
2023-04-07T22:18:24.998Z,101795.27
2023-04-07T22:20:52.934Z,101792.86
2023-04-07T22:23:20.887Z,101797.80
2023-04-07T22:25:48.808Z,101800.54
2023-04-07T22:28:16.823Z,101799.30
2023-04-07T22:30:44.705Z,101799.20
2023-04-07T22:33:12.746Z,101798.64
2023-04-07T22:35:40.703Z,101796.95
2023-04-07T22:38:08.745Z,101792.76
2023-04-07T22:40:36.734Z,101794.36
2023-04-07T22:43:04.611Z,101793.94
2023-04-07T22:45:32.957Z,101798.71
2023-04-07T22:48:00.865Z,101803.16
2023-04-07T22:50:29.006Z,101807.27
2023-04-07T22:52:57.279Z,101814.66
2023-04-07T22:55:25.214Z,101811.10
2023-04-07T22:57:53.182Z,101810.74
2023-04-07T23:00:21.108Z,101811.98
2023-04-07T23:02:49.185Z,101821.37
2023-04-07T23:05:17.648Z,101814.05
2023-04-07T23:07:45.777Z,101814.41
2023-04-07T23:10:13.708Z,101811.10
2023-04-07T23:12:41.867Z,101815.09
2023-04-07T23:15:10.146Z,101814.21
2023-04-07T23:17:38.144Z,101813.42
2023-04-07T23:20:06.595Z,101808.06
2023-04-07T23:22:34.562Z,101810.38
2023-04-07T23:25:02.720Z,101810.71
2023-04-07T23:27:30.701Z,101811.07
2023-04-07T23:29:59.466Z,101814.73
2023-04-07T23:32:27.452Z,101812.31
2023-04-07T23:34:55.561Z,101817.25
2023-04-07T23:37:23.507Z,101824.64
2023-04-07T23:39:51.702Z,101830.33
2023-04-07T23:42:19.740Z,101827.13
2023-04-07T23:44:47.801Z,101828.73
2023-04-07T23:47:15.754Z,101823.13
2023-04-07T23:49:43.940Z,101830.85
2023-04-07T23:52:11.885Z,101827.13
2023-04-07T23:54:39.871Z,101827.91
2023-04-07T23:57:08.072Z,101825.06
2023-04-07T23:59:36.021Z,101828.73
